sensor_id;sensor_type;location;lat;lon;timestamp;P1;durP1;ratioP1;P2;durP2;ratioP2
6089;SDS011;3073;42.660;23.316;2022-08-05T00:02:05;10.20;;;6.50;;
6089;SDS011;3073;42.660;23.316;2022-08-05T00:04:33;8.10;;;5.73;;
6089;SDS011;3073;42.660;23.316;2022-08-05T00:07:00;6.63;;;5.37;;
6089;SDS011;3073;42.660;23.316;2022-08-05T00:09:27;6.80;;;6.10;;
6089;SDS011;3073;42.660;23.316;2022-08-05T00:11:59;8.80;;;4.70;;
6089;SDS011;3073;42.660;23.316;2022-08-05T00:14:27;9.97;;;5.67;;
6089;SDS011;3073;42.660;23.316;2022-08-05T00:16:54;6.10;;;5.30;;
6089;SDS011;3073;42.660;23.316;2022-08-05T00:19:21;11.17;;;5.93;;
6089;SDS011;3073;42.660;23.316;2022-08-05T00:21:48;6.80;;;5.63;;
6089;SDS011;3073;42.660;23.316;2022-08-05T00:24:15;8.10;;;5.50;;
6089;SDS011;3073;42.660;23.316;2022-08-05T00:26:42;8.50;;;5.63;;
6089;SDS011;3073;42.660;23.316;2022-08-05T00:29:09;10.00;;;6.00;;
6089;SDS011;3073;42.660;23.316;2022-08-05T00:31:37;9.10;;;5.20;;
6089;SDS011;3073;42.660;23.316;2022-08-05T00:34:03;9.17;;;5.10;;
6089;SDS011;3073;42.660;23.316;2022-08-05T00:36:30;6.20;;;5.33;;
6089;SDS011;3073;42.660;23.316;2022-08-05T00:38:57;8.63;;;6.03;;
6089;SDS011;3073;42.660;23.316;2022-08-05T00:41:26;8.50;;;6.13;;
6089;SDS011;3073;42.660;23.316;2022-08-05T00:43:54;10.33;;;5.97;;
6089;SDS011;3073;42.660;23.316;2022-08-05T00:46:21;7.77;;;5.10;;
6089;SDS011;3073;42.660;23.316;2022-08-05T00:48:49;7.50;;;5.67;;
6089;SDS011;3073;42.660;23.316;2022-08-05T00:51:18;6.83;;;6.13;;
6089;SDS011;3073;42.660;23.316;2022-08-05T00:53:46;7.37;;;6.20;;
6089;SDS011;3073;42.660;23.316;2022-08-05T00:56:13;7.53;;;6.03;;
6089;SDS011;3073;42.660;23.316;2022-08-05T00:58:41;8.90;;;5.90;;
6089;SDS011;3073;42.660;23.316;2022-08-05T01:01:08;10.43;;;5.67;;
6089;SDS011;3073;42.660;23.316;2022-08-05T01:03:36;13.07;;;6.23;;
6089;SDS011;3073;42.660;23.316;2022-08-05T01:06:05;8.87;;;6.17;;
6089;SDS011;3073;42.660;23.316;2022-08-05T01:08:36;10.83;;;5.90;;
6089;SDS011;3073;42.660;23.316;2022-08-05T01:11:05;7.30;;;6.07;;
6089;SDS011;3073;42.660;23.316;2022-08-05T01:13:38;7.53;;;6.40;;
6089;SDS011;3073;42.660;23.316;2022-08-05T01:16:13;8.83;;;6.83;;
6089;SDS011;3073;42.660;23.316;2022-08-05T01:18:46;10.43;;;6.53;;
6089;SDS011;3073;42.660;23.316;2022-08-05T01:21:22;20.67;;;7.10;;
6089;SDS011;3073;42.660;23.316;2022-08-05T01:24:05;19.50;;;6.80;;
6089;SDS011;3073;42.660;23.316;2022-08-05T01:26:43;7.33;;;6.20;;
6089;SDS011;3073;42.660;23.316;2022-08-05T01:29:26;10.80;;;7.00;;
6089;SDS011;3073;42.660;23.316;2022-08-05T01:31:58;13.90;;;6.80;;
6089;SDS011;3073;42.660;23.316;2022-08-05T01:34:28;9.17;;;6.40;;
6089;SDS011;3073;42.660;23.316;2022-08-05T01:37:01;11.83;;;7.80;;
6089;SDS011;3073;42.660;23.316;2022-08-05T01:39:33;12.83;;;6.87;;
6089;SDS011;3073;42.660;23.316;2022-08-05T01:42:03;6.97;;;5.93;;
6089;SDS011;3073;42.660;23.316;2022-08-05T01:44:33;11.77;;;6.40;;
6089;SDS011;3073;42.660;23.316;2022-08-05T01:47:01;10.43;;;6.27;;
6089;SDS011;3073;42.660;23.316;2022-08-05T01:49:28;11.47;;;6.63;;
6089;SDS011;3073;42.660;23.316;2022-08-05T01:51:57;9.10;;;6.20;;
6089;SDS011;3073;42.660;23.316;2022-08-05T01:54:27;9.93;;;7.00;;
6089;SDS011;3073;42.660;23.316;2022-08-05T01:56:57;10.97;;;6.83;;
6089;SDS011;3073;42.660;23.316;2022-08-05T01:59:25;14.57;;;7.47;;
6089;SDS011;3073;42.660;23.316;2022-08-05T02:01:56;11.97;;;7.00;;
6089;SDS011;3073;42.660;23.316;2022-08-05T02:04:26;9.17;;;6.60;;
6089;SDS011;3073;42.660;23.316;2022-08-05T02:06:56;9.00;;;7.50;;
6089;SDS011;3073;42.660;23.316;2022-08-05T02:09:24;14.33;;;6.73;;
6089;SDS011;3073;42.660;23.316;2022-08-05T02:11:54;7.50;;;6.50;;
6089;SDS011;3073;42.660;23.316;2022-08-05T02:14:32;8.27;;;6.83;;
6089;SDS011;3073;42.660;23.316;2022-08-05T02:17:05;9.67;;;6.67;;
6089;SDS011;3073;42.660;23.316;2022-08-05T02:19:36;11.93;;;6.10;;
6089;SDS011;3073;42.660;23.316;2022-08-05T02:22:12;10.63;;;7.43;;
6089;SDS011;3073;42.660;23.316;2022-08-05T02:24:45;7.23;;;6.53;;
6089;SDS011;3073;42.660;23.316;2022-08-05T02:27:17;8.43;;;6.30;;
6089;SDS011;3073;42.660;23.316;2022-08-05T02:29:46;9.27;;;6.97;;
6089;SDS011;3073;42.660;23.316;2022-08-05T02:32:16;8.57;;;6.80;;
6089;SDS011;3073;42.660;23.316;2022-08-05T02:34:45;7.70;;;6.10;;
6089;SDS011;3073;42.660;23.316;2022-08-05T02:37:13;6.80;;;6.10;;
6089;SDS011;3073;42.660;23.316;2022-08-05T02:39:41;12.13;;;6.20;;
6089;SDS011;3073;42.660;23.316;2022-08-05T02:42:08;8.13;;;6.27;;
6089;SDS011;3073;42.660;23.316;2022-08-05T02:44:37;6.53;;;5.83;;
6089;SDS011;3073;42.660;23.316;2022-08-05T02:47:07;14.53;;;6.10;;
6089;SDS011;3073;42.660;23.316;2022-08-05T02:49:37;7.70;;;6.63;;
6089;SDS011;3073;42.660;23.316;2022-08-05T02:52:10;9.70;;;6.77;;
6089;SDS011;3073;42.660;23.316;2022-08-05T02:54:39;10.40;;;6.70;;
6089;SDS011;3073;42.660;23.316;2022-08-05T02:57:09;11.43;;;6.40;;
6089;SDS011;3073;42.660;23.316;2022-08-05T02:59:39;8.70;;;6.63;;
6089;SDS011;3073;42.660;23.316;2022-08-05T03:02:08;13.67;;;7.60;;
6089;SDS011;3073;42.660;23.316;2022-08-05T03:04:38;9.70;;;7.37;;
6089;SDS011;3073;42.660;23.316;2022-08-05T03:07:08;9.80;;;7.10;;
6089;SDS011;3073;42.660;23.316;2022-08-05T03:09:36;12.07;;;7.33;;
6089;SDS011;3073;42.660;23.316;2022-08-05T03:12:05;11.50;;;7.30;;
6089;SDS011;3073;42.660;23.316;2022-08-05T03:14:33;9.77;;;7.70;;
6089;SDS011;3073;42.660;23.316;2022-08-05T03:17:00;8.60;;;6.70;;
6089;SDS011;3073;42.660;23.316;2022-08-05T03:19:41;9.13;;;7.60;;
6089;SDS011;3073;42.660;23.316;2022-08-05T03:22:07;10.97;;;6.90;;
6089;SDS011;3073;42.660;23.316;2022-08-05T03:24:34;8.30;;;6.67;;
6089;SDS011;3073;42.660;23.316;2022-08-05T03:27:01;9.67;;;7.13;;
6089;SDS011;3073;42.660;23.316;2022-08-05T03:29:29;10.47;;;8.17;;
6089;SDS011;3073;42.660;23.316;2022-08-05T03:31:56;9.87;;;7.30;;
6089;SDS011;3073;42.660;23.316;2022-08-05T03:34:23;18.23;;;8.53;;
6089;SDS011;3073;42.660;23.316;2022-08-05T03:36:52;10.90;;;7.57;;
6089;SDS011;3073;42.660;23.316;2022-08-05T03:39:19;16.20;;;10.13;;
6089;SDS011;3073;42.660;23.316;2022-08-05T03:41:46;13.77;;;8.27;;
6089;SDS011;3073;42.660;23.316;2022-08-05T03:44:14;25.63;;;9.37;;
6089;SDS011;3073;42.660;23.316;2022-08-05T03:46:41;22.80;;;9.23;;
6089;SDS011;3073;42.660;23.316;2022-08-05T03:49:08;18.57;;;9.37;;
6089;SDS011;3073;42.660;23.316;2022-08-05T03:51:35;16.03;;;7.90;;
6089;SDS011;3073;42.660;23.316;2022-08-05T03:54:11;13.73;;;8.50;;
6089;SDS011;3073;42.660;23.316;2022-08-05T03:56:44;12.87;;;8.50;;
6089;SDS011;3073;42.660;23.316;2022-08-05T03:59:13;13.80;;;8.83;;
6089;SDS011;3073;42.660;23.316;2022-08-05T04:01:44;13.33;;;8.80;;
6089;SDS011;3073;42.660;23.316;2022-08-05T04:04:13;13.80;;;9.13;;
6089;SDS011;3073;42.660;23.316;2022-08-05T04:06:41;11.60;;;9.07;;
6089;SDS011;3073;42.660;23.316;2022-08-05T04:09:10;12.30;;;8.73;;
6089;SDS011;3073;42.660;23.316;2022-08-05T04:11:38;11.77;;;8.50;;
6089;SDS011;3073;42.660;23.316;2022-08-05T04:14:05;14.53;;;8.40;;
6089;SDS011;3073;42.660;23.316;2022-08-05T04:16:33;11.03;;;8.67;;
6089;SDS011;3073;42.660;23.316;2022-08-05T04:19:01;19.83;;;8.03;;
6089;SDS011;3073;42.660;23.316;2022-08-05T04:21:28;13.03;;;8.50;;
6089;SDS011;3073;42.660;23.316;2022-08-05T04:23:56;16.73;;;9.20;;
6089;SDS011;3073;42.660;23.316;2022-08-05T04:26:24;14.60;;;8.30;;
6089;SDS011;3073;42.660;23.316;2022-08-05T04:28:51;10.30;;;8.10;;
6089;SDS011;3073;42.660;23.316;2022-08-05T04:31:18;10.37;;;8.87;;
6089;SDS011;3073;42.660;23.316;2022-08-05T04:33:45;12.00;;;8.97;;
6089;SDS011;3073;42.660;23.316;2022-08-05T04:36:12;10.40;;;9.30;;
6089;SDS011;3073;42.660;23.316;2022-08-05T04:38:39;10.73;;;9.27;;
6089;SDS011;3073;42.660;23.316;2022-08-05T04:41:07;15.23;;;10.00;;
6089;SDS011;3073;42.660;23.316;2022-08-05T04:43:37;10.50;;;9.10;;
6089;SDS011;3073;42.660;23.316;2022-08-05T04:46:04;13.03;;;9.87;;
6089;SDS011;3073;42.660;23.316;2022-08-05T04:48:31;14.03;;;9.03;;
6089;SDS011;3073;42.660;23.316;2022-08-05T04:50:58;12.00;;;9.20;;
6089;SDS011;3073;42.660;23.316;2022-08-05T04:53:25;17.43;;;9.60;;
6089;SDS011;3073;42.660;23.316;2022-08-05T04:55:53;12.07;;;8.77;;
6089;SDS011;3073;42.660;23.316;2022-08-05T04:58:20;13.47;;;9.70;;
6089;SDS011;3073;42.660;23.316;2022-08-05T05:00:48;12.93;;;8.83;;
6089;SDS011;3073;42.660;23.316;2022-08-05T05:03:15;17.03;;;9.27;;
6089;SDS011;3073;42.660;23.316;2022-08-05T05:05:42;12.90;;;9.67;;
6089;SDS011;3073;42.660;23.316;2022-08-05T05:08:09;12.30;;;9.30;;
6089;SDS011;3073;42.660;23.316;2022-08-05T05:10:39;16.80;;;9.90;;
6089;SDS011;3073;42.660;23.316;2022-08-05T05:13:07;18.40;;;10.50;;
6089;SDS011;3073;42.660;23.316;2022-08-05T05:15:34;12.97;;;9.97;;
6089;SDS011;3073;42.660;23.316;2022-08-05T05:18:05;13.80;;;10.57;;
6089;SDS011;3073;42.660;23.316;2022-08-05T05:20:33;13.40;;;9.43;;
6089;SDS011;3073;42.660;23.316;2022-08-05T05:23:01;17.37;;;9.70;;
6089;SDS011;3073;42.660;23.316;2022-08-05T05:25:31;15.60;;;9.57;;
6089;SDS011;3073;42.660;23.316;2022-08-05T05:27:58;14.40;;;9.40;;
6089;SDS011;3073;42.660;23.316;2022-08-05T05:30:25;15.70;;;10.30;;
6089;SDS011;3073;42.660;23.316;2022-08-05T05:32:52;16.83;;;10.97;;
6089;SDS011;3073;42.660;23.316;2022-08-05T05:35:20;17.80;;;10.63;;
6089;SDS011;3073;42.660;23.316;2022-08-05T05:37:47;13.57;;;10.57;;
6089;SDS011;3073;42.660;23.316;2022-08-05T05:40:15;13.07;;;10.40;;
6089;SDS011;3073;42.660;23.316;2022-08-05T05:42:44;13.53;;;9.80;;
6089;SDS011;3073;42.660;23.316;2022-08-05T05:45:11;18.43;;;10.97;;
6089;SDS011;3073;42.660;23.316;2022-08-05T05:47:38;16.00;;;9.80;;
6089;SDS011;3073;42.660;23.316;2022-08-05T05:50:06;11.63;;;8.70;;
6089;SDS011;3073;42.660;23.316;2022-08-05T05:52:35;12.90;;;9.30;;
6089;SDS011;3073;42.660;23.316;2022-08-05T05:55:03;12.67;;;8.97;;
6089;SDS011;3073;42.660;23.316;2022-08-05T05:57:33;14.87;;;8.67;;
6089;SDS011;3073;42.660;23.316;2022-08-05T05:59:59;11.00;;;8.27;;
6089;SDS011;3073;42.660;23.316;2022-08-05T06:02:26;10.43;;;7.93;;
6089;SDS011;3073;42.660;23.316;2022-08-05T06:04:54;11.67;;;8.20;;
6089;SDS011;3073;42.660;23.316;2022-08-05T06:07:21;12.53;;;8.83;;
6089;SDS011;3073;42.660;23.316;2022-08-05T06:09:49;14.50;;;8.13;;
6089;SDS011;3073;42.660;23.316;2022-08-05T06:12:16;12.60;;;7.40;;
6089;SDS011;3073;42.660;23.316;2022-08-05T06:14:43;10.67;;;7.43;;
6089;SDS011;3073;42.660;23.316;2022-08-05T06:17:10;11.30;;;7.07;;
6089;SDS011;3073;42.660;23.316;2022-08-05T06:19:37;8.70;;;7.67;;
6089;SDS011;3073;42.660;23.316;2022-08-05T06:22:05;27.27;;;9.17;;
6089;SDS011;3073;42.660;23.316;2022-08-05T06:24:33;13.30;;;8.40;;
6089;SDS011;3073;42.660;23.316;2022-08-05T06:27:02;16.77;;;8.23;;
6089;SDS011;3073;42.660;23.316;2022-08-05T06:29:29;16.50;;;8.35;;
6089;SDS011;3073;42.660;23.316;2022-08-05T06:31:56;15.98;;;7.75;;
6089;SDS011;3073;42.660;23.316;2022-08-05T06:34:23;15.43;;;8.85;;
6089;SDS011;3073;42.660;23.316;2022-08-05T06:36:50;20.77;;;9.23;;
6089;SDS011;3073;42.660;23.316;2022-08-05T06:39:17;15.00;;;8.57;;
6089;SDS011;3073;42.660;23.316;2022-08-05T06:41:44;18.23;;;9.15;;
6089;SDS011;3073;42.660;23.316;2022-08-05T06:44:12;14.38;;;8.88;;
6089;SDS011;3073;42.660;23.316;2022-08-05T06:46:39;20.15;;;8.68;;
6089;SDS011;3073;42.660;23.316;2022-08-05T06:49:06;19.27;;;8.43;;
6089;SDS011;3073;42.660;23.316;2022-08-05T06:51:33;11.00;;;7.22;;
6089;SDS011;3073;42.660;23.316;2022-08-05T06:54:00;11.18;;;7.85;;
6089;SDS011;3073;42.660;23.316;2022-08-05T06:56:29;12.38;;;7.75;;
6089;SDS011;3073;42.660;23.316;2022-08-05T06:58:58;8.70;;;7.20;;
6089;SDS011;3073;42.660;23.316;2022-08-05T07:01:26;11.77;;;6.82;;
6089;SDS011;3073;42.660;23.316;2022-08-05T07:03:54;8.95;;;6.65;;
6089;SDS011;3073;42.660;23.316;2022-08-05T07:06:21;18.00;;;7.07;;
6089;SDS011;3073;42.660;23.316;2022-08-05T07:08:48;12.27;;;7.03;;
6089;SDS011;3073;42.660;23.316;2022-08-05T07:11:15;10.13;;;6.63;;
6089;SDS011;3073;42.660;23.316;2022-08-05T07:13:42;9.75;;;7.18;;
6089;SDS011;3073;42.660;23.316;2022-08-05T07:16:28;9.95;;;7.70;;
6089;SDS011;3073;42.660;23.316;2022-08-05T07:19:13;10.57;;;7.22;;
6089;SDS011;3073;42.660;23.316;2022-08-05T07:21:41;16.50;;;6.90;;
6089;SDS011;3073;42.660;23.316;2022-08-05T07:24:09;13.02;;;6.75;;
6089;SDS011;3073;42.660;23.316;2022-08-05T07:26:36;14.25;;;6.72;;
6089;SDS011;3073;42.660;23.316;2022-08-05T07:29:03;12.35;;;6.40;;
6089;SDS011;3073;42.660;23.316;2022-08-05T07:31:31;13.68;;;6.72;;
6089;SDS011;3073;42.660;23.316;2022-08-05T07:33:58;8.27;;;5.70;;
6089;SDS011;3073;42.660;23.316;2022-08-05T07:36:25;9.48;;;6.95;;
6089;SDS011;3073;42.660;23.316;2022-08-05T07:38:52;10.50;;;6.13;;
6089;SDS011;3073;42.660;23.316;2022-08-05T07:41:20;10.18;;;5.95;;
6089;SDS011;3073;42.660;23.316;2022-08-05T07:43:49;11.57;;;6.43;;
6089;SDS011;3073;42.660;23.316;2022-08-05T07:46:16;7.78;;;6.28;;
6089;SDS011;3073;42.660;23.316;2022-08-05T07:48:45;9.30;;;6.90;;
6089;SDS011;3073;42.660;23.316;2022-08-05T07:51:12;9.57;;;6.20;;
6089;SDS011;3073;42.660;23.316;2022-08-05T07:53:40;14.90;;;6.93;;
6089;SDS011;3073;42.660;23.316;2022-08-05T07:56:07;14.23;;;6.43;;
6089;SDS011;3073;42.660;23.316;2022-08-05T07:58:35;9.73;;;6.00;;
6089;SDS011;3073;42.660;23.316;2022-08-05T08:01:02;9.07;;;6.60;;
6089;SDS011;3073;42.660;23.316;2022-08-05T08:03:29;9.75;;;6.70;;
6089;SDS011;3073;42.660;23.316;2022-08-05T08:05:57;15.68;;;6.32;;
6089;SDS011;3073;42.660;23.316;2022-08-05T08:08:24;11.38;;;7.00;;
6089;SDS011;3073;42.660;23.316;2022-08-05T08:10:51;12.43;;;6.13;;
6089;SDS011;3073;42.660;23.316;2022-08-05T08:13:19;12.93;;;5.68;;
6089;SDS011;3073;42.660;23.316;2022-08-05T08:15:46;8.10;;;5.78;;
6089;SDS011;3073;42.660;23.316;2022-08-05T08:18:13;9.10;;;5.75;;
6089;SDS011;3073;42.660;23.316;2022-08-05T08:20:41;28.23;;;7.88;;
6089;SDS011;3073;42.660;23.316;2022-08-05T08:23:09;8.95;;;6.03;;
6089;SDS011;3073;42.660;23.316;2022-08-05T08:25:36;9.27;;;5.47;;
6089;SDS011;3073;42.660;23.316;2022-08-05T08:28:03;14.90;;;6.20;;
6089;SDS011;3073;42.660;23.316;2022-08-05T08:30:30;16.88;;;6.18;;
6089;SDS011;3073;42.660;23.316;2022-08-05T08:32:57;16.52;;;5.80;;
6089;SDS011;3073;42.660;23.316;2022-08-05T08:35:24;8.05;;;5.07;;
6089;SDS011;3073;42.660;23.316;2022-08-05T08:37:51;8.63;;;5.00;;
6089;SDS011;3073;42.660;23.316;2022-08-05T08:40:19;6.70;;;4.80;;
6089;SDS011;3073;42.660;23.316;2022-08-05T08:42:47;5.85;;;5.07;;
6089;SDS011;3073;42.660;23.316;2022-08-05T08:45:17;9.75;;;4.93;;
6089;SDS011;3073;42.660;23.316;2022-08-05T08:47:46;9.10;;;4.90;;
6089;SDS011;3073;42.660;23.316;2022-08-05T08:50:15;8.40;;;5.15;;
6089;SDS011;3073;42.660;23.316;2022-08-05T08:52:45;12.60;;;5.85;;
6089;SDS011;3073;42.660;23.316;2022-08-05T08:55:15;11.05;;;4.80;;
6089;SDS011;3073;42.660;23.316;2022-08-05T08:57:45;6.47;;;4.75;;
6089;SDS011;3073;42.660;23.316;2022-08-05T09:00:13;9.60;;;4.85;;
6089;SDS011;3073;42.660;23.316;2022-08-05T09:02:41;9.07;;;4.72;;
6089;SDS011;3073;42.660;23.316;2022-08-05T09:05:10;13.90;;;4.70;;
6089;SDS011;3073;42.660;23.316;2022-08-05T09:07:37;14.63;;;3.97;;
6089;SDS011;3073;42.660;23.316;2022-08-05T09:10:05;5.22;;;4.00;;
6089;SDS011;3073;42.660;23.316;2022-08-05T09:12:33;9.88;;;4.55;;
6089;SDS011;3073;42.660;23.316;2022-08-05T09:15:02;4.97;;;3.72;;
6089;SDS011;3073;42.660;23.316;2022-08-05T09:17:31;5.50;;;4.07;;
6089;SDS011;3073;42.660;23.316;2022-08-05T09:19:58;11.30;;;3.60;;
6089;SDS011;3073;42.660;23.316;2022-08-05T09:22:26;7.35;;;3.58;;
6089;SDS011;3073;42.660;23.316;2022-08-05T09:24:56;4.18;;;3.30;;
6089;SDS011;3073;42.660;23.316;2022-08-05T09:27:31;12.90;;;4.07;;
6089;SDS011;3073;42.660;23.316;2022-08-05T09:30:00;6.55;;;3.45;;
6089;SDS011;3073;42.660;23.316;2022-08-05T09:32:35;7.07;;;4.40;;
6089;SDS011;3073;42.660;23.316;2022-08-05T09:35:09;4.82;;;3.58;;
6089;SDS011;3073;42.660;23.316;2022-08-05T09:37:38;3.45;;;3.13;;
6089;SDS011;3073;42.660;23.316;2022-08-05T09:40:27;4.53;;;3.30;;
6089;SDS011;3073;42.660;23.316;2022-08-05T09:42:55;3.38;;;2.90;;
6089;SDS011;3073;42.660;23.316;2022-08-05T09:45:26;4.90;;;3.60;;
6089;SDS011;3073;42.660;23.316;2022-08-05T09:48:02;11.88;;;3.80;;
6089;SDS011;3073;42.660;23.316;2022-08-05T09:50:47;7.38;;;4.50;;
6089;SDS011;3073;42.660;23.316;2022-08-05T09:53:14;5.88;;;3.92;;
6089;SDS011;3073;42.660;23.316;2022-08-05T09:55:41;4.10;;;3.10;;
6089;SDS011;3073;42.660;23.316;2022-08-05T09:58:08;3.80;;;2.70;;
6089;SDS011;3073;42.660;23.316;2022-08-05T10:00:36;3.28;;;2.90;;
6089;SDS011;3073;42.660;23.316;2022-08-05T10:03:11;8.30;;;3.00;;
6089;SDS011;3073;42.660;23.316;2022-08-05T10:05:37;3.22;;;2.95;;
6089;SDS011;3073;42.660;23.316;2022-08-05T10:08:06;7.53;;;3.35;;
6089;SDS011;3073;42.660;23.316;2022-08-05T10:10:35;4.50;;;3.25;;
6089;SDS011;3073;42.660;23.316;2022-08-05T10:13:03;8.07;;;3.83;;
6089;SDS011;3073;42.660;23.316;2022-08-05T10:15:32;5.13;;;3.40;;
6089;SDS011;3073;42.660;23.316;2022-08-05T10:18:02;4.10;;;3.70;;
6089;SDS011;3073;42.660;23.316;2022-08-05T10:20:36;6.85;;;3.53;;
6089;SDS011;3073;42.660;23.316;2022-08-05T10:23:05;4.78;;;3.70;;
6089;SDS011;3073;42.660;23.316;2022-08-05T10:25:33;7.38;;;3.22;;
6089;SDS011;3073;42.660;23.316;2022-08-05T10:28:00;4.85;;;3.70;;
6089;SDS011;3073;42.660;23.316;2022-08-05T10:30:27;4.95;;;4.00;;
6089;SDS011;3073;42.660;23.316;2022-08-05T10:32:55;8.70;;;3.22;;
6089;SDS011;3073;42.660;23.316;2022-08-05T10:35:23;3.78;;;3.22;;
6089;SDS011;3073;42.660;23.316;2022-08-05T10:37:51;4.00;;;3.38;;
6089;SDS011;3073;42.660;23.316;2022-08-05T10:40:24;4.65;;;3.22;;
6089;SDS011;3073;42.660;23.316;2022-08-05T10:42:57;7.07;;;3.55;;
6089;SDS011;3073;42.660;23.316;2022-08-05T10:45:28;7.47;;;3.45;;
6089;SDS011;3073;42.660;23.316;2022-08-05T10:47:55;4.05;;;3.20;;
6089;SDS011;3073;42.660;23.316;2022-08-05T10:50:22;4.85;;;3.72;;
6089;SDS011;3073;42.660;23.316;2022-08-05T10:52:50;8.30;;;3.70;;
6089;SDS011;3073;42.660;23.316;2022-08-05T10:55:21;5.20;;;3.90;;
6089;SDS011;3073;42.660;23.316;2022-08-05T10:57:57;5.45;;;3.40;;
6089;SDS011;3073;42.660;23.316;2022-08-05T11:00:33;3.88;;;3.58;;
6089;SDS011;3073;42.660;23.316;2022-08-05T11:03:11;5.32;;;3.55;;
6089;SDS011;3073;42.660;23.316;2022-08-05T11:05:38;4.70;;;3.42;;
6089;SDS011;3073;42.660;23.316;2022-08-05T11:08:07;3.70;;;3.13;;
6089;SDS011;3073;42.660;23.316;2022-08-05T11:10:36;5.85;;;4.20;;
6089;SDS011;3073;42.660;23.316;2022-08-05T11:13:05;5.07;;;3.95;;
6089;SDS011;3073;42.660;23.316;2022-08-05T11:15:35;9.57;;;3.72;;
6089;SDS011;3073;42.660;23.316;2022-08-05T11:18:06;6.57;;;3.78;;
6089;SDS011;3073;42.660;23.316;2022-08-05T11:20:36;3.80;;;3.45;;
6089;SDS011;3073;42.660;23.316;2022-08-05T11:26:00;7.38;;;3.80;;
6089;SDS011;3073;42.660;23.316;2022-08-05T11:28:38;3.90;;;3.55;;
6089;SDS011;3073;42.660;23.316;2022-08-05T11:31:19;4.53;;;3.95;;
6089;SDS011;3073;42.660;23.316;2022-08-05T11:33:52;5.65;;;4.03;;
6089;SDS011;3073;42.660;23.316;2022-08-05T11:36:21;5.05;;;3.45;;
6089;SDS011;3073;42.660;23.316;2022-08-05T11:39:07;3.92;;;3.53;;
6089;SDS011;3073;42.660;23.316;2022-08-05T11:41:36;5.68;;;4.40;;
6089;SDS011;3073;42.660;23.316;2022-08-05T11:44:04;6.05;;;3.35;;
6089;SDS011;3073;42.660;23.316;2022-08-05T11:46:32;12.20;;;4.45;;
6089;SDS011;3073;42.660;23.316;2022-08-05T11:49:00;7.22;;;3.97;;
6089;SDS011;3073;42.660;23.316;2022-08-05T11:51:28;5.80;;;3.80;;
6089;SDS011;3073;42.660;23.316;2022-08-05T11:53:57;9.88;;;3.92;;
6089;SDS011;3073;42.660;23.316;2022-08-05T11:56:27;4.80;;;4.28;;
6089;SDS011;3073;42.660;23.316;2022-08-05T11:59:11;11.30;;;3.80;;
6089;SDS011;3073;42.660;23.316;2022-08-05T12:01:50;6.72;;;3.55;;
6089;SDS011;3073;42.660;23.316;2022-08-05T12:04:18;4.40;;;3.53;;
6089;SDS011;3073;42.660;23.316;2022-08-05T12:06:46;6.13;;;4.07;;
6089;SDS011;3073;42.660;23.316;2022-08-05T12:09:13;6.03;;;4.10;;
6089;SDS011;3073;42.660;23.316;2022-08-05T12:11:45;8.60;;;3.80;;
6089;SDS011;3073;42.660;23.316;2022-08-05T12:14:12;10.63;;;3.50;;
6089;SDS011;3073;42.660;23.316;2022-08-05T12:16:40;6.80;;;3.53;;
6089;SDS011;3073;42.660;23.316;2022-08-05T12:19:08;4.35;;;3.95;;
6089;SDS011;3073;42.660;23.316;2022-08-05T12:21:42;6.30;;;4.20;;
6089;SDS011;3073;42.660;23.316;2022-08-05T12:24:13;3.90;;;3.50;;
6089;SDS011;3073;42.660;23.316;2022-08-05T12:26:43;9.70;;;3.83;;
6089;SDS011;3073;42.660;23.316;2022-08-05T12:29:13;5.93;;;3.65;;
6089;SDS011;3073;42.660;23.316;2022-08-05T12:31:43;8.82;;;3.53;;
6089;SDS011;3073;42.660;23.316;2022-08-05T12:34:13;4.82;;;4.43;;
6089;SDS011;3073;42.660;23.316;2022-08-05T12:36:40;4.47;;;3.67;;
6089;SDS011;3073;42.660;23.316;2022-08-05T12:39:08;5.88;;;3.92;;
6089;SDS011;3073;42.660;23.316;2022-08-05T12:41:36;5.47;;;3.60;;
6089;SDS011;3073;42.660;23.316;2022-08-05T12:44:07;12.70;;;4.47;;
6089;SDS011;3073;42.660;23.316;2022-08-05T12:46:36;5.90;;;4.40;;
6089;SDS011;3073;42.660;23.316;2022-08-05T12:49:05;14.75;;;4.63;;
6089;SDS011;3073;42.660;23.316;2022-08-05T12:51:42;14.23;;;4.05;;
6089;SDS011;3073;42.660;23.316;2022-08-05T12:54:19;4.53;;;4.10;;
6089;SDS011;3073;42.660;23.316;2022-08-05T12:56:49;7.43;;;5.57;;
6089;SDS011;3073;42.660;23.316;2022-08-05T12:59:19;7.10;;;5.10;;
6089;SDS011;3073;42.660;23.316;2022-08-05T13:01:54;7.40;;;4.20;;
6089;SDS011;3073;42.660;23.316;2022-08-05T13:04:24;6.90;;;3.97;;
6089;SDS011;3073;42.660;23.316;2022-08-05T13:06:55;7.65;;;4.75;;
6089;SDS011;3073;42.660;23.316;2022-08-05T13:09:23;7.70;;;4.22;;
6089;SDS011;3073;42.660;23.316;2022-08-05T13:11:54;15.30;;;5.07;;
6089;SDS011;3073;42.660;23.316;2022-08-05T13:14:33;4.45;;;4.05;;
6089;SDS011;3073;42.660;23.316;2022-08-05T13:17:01;8.02;;;4.20;;
6089;SDS011;3073;42.660;23.316;2022-08-05T13:19:28;6.25;;;4.32;;
6089;SDS011;3073;42.660;23.316;2022-08-05T13:21:55;6.68;;;4.07;;
6089;SDS011;3073;42.660;23.316;2022-08-05T13:24:22;6.95;;;3.88;;
6089;SDS011;3073;42.660;23.316;2022-08-05T13:26:49;6.25;;;3.85;;
6089;SDS011;3073;42.660;23.316;2022-08-05T13:29:17;8.40;;;4.20;;
6089;SDS011;3073;42.660;23.316;2022-08-05T13:31:47;7.65;;;3.80;;
6089;SDS011;3073;42.660;23.316;2022-08-05T13:34:14;4.68;;;3.30;;
6089;SDS011;3073;42.660;23.316;2022-08-05T13:36:41;5.38;;;4.30;;
6089;SDS011;3073;42.660;23.316;2022-08-05T13:39:09;9.18;;;5.10;;
6089;SDS011;3073;42.660;23.316;2022-08-05T13:41:39;4.60;;;3.75;;
6089;SDS011;3073;42.660;23.316;2022-08-05T13:44:06;8.48;;;3.95;;
6089;SDS011;3073;42.660;23.316;2022-08-05T13:46:33;5.85;;;4.65;;
6089;SDS011;3073;42.660;23.316;2022-08-05T13:49:01;10.93;;;4.22;;
6089;SDS011;3073;42.660;23.316;2022-08-05T13:51:29;5.68;;;4.00;;
6089;SDS011;3073;42.660;23.316;2022-08-05T13:53:58;5.45;;;4.00;;
6089;SDS011;3073;42.660;23.316;2022-08-05T13:56:25;5.32;;;4.40;;
6089;SDS011;3073;42.660;23.316;2022-08-05T13:58:52;4.55;;;4.15;;
6089;SDS011;3073;42.660;23.316;2022-08-05T14:01:19;7.50;;;3.42;;
6089;SDS011;3073;42.660;23.316;2022-08-05T14:03:47;6.65;;;4.28;;
6089;SDS011;3073;42.660;23.316;2022-08-05T14:06:36;3.80;;;3.50;;
6089;SDS011;3073;42.660;23.316;2022-08-05T14:09:03;4.15;;;3.60;;
6089;SDS011;3073;42.660;23.316;2022-08-05T14:11:30;4.18;;;3.20;;
6089;SDS011;3073;42.660;23.316;2022-08-05T14:13:57;9.40;;;3.75;;
6089;SDS011;3073;42.660;23.316;2022-08-05T14:16:24;4.40;;;3.60;;
6089;SDS011;3073;42.660;23.316;2022-08-05T14:18:51;4.20;;;3.58;;
6089;SDS011;3073;42.660;23.316;2022-08-05T14:21:18;4.13;;;3.50;;
6089;SDS011;3073;42.660;23.316;2022-08-05T14:23:46;4.20;;;3.90;;
6089;SDS011;3073;42.660;23.316;2022-08-05T14:26:13;5.63;;;3.35;;
6089;SDS011;3073;42.660;23.316;2022-08-05T14:28:40;11.50;;;3.85;;
6089;SDS011;3073;42.660;23.316;2022-08-05T14:31:06;6.18;;;4.03;;
6089;SDS011;3073;42.660;23.316;2022-08-05T14:33:34;5.15;;;4.10;;
6089;SDS011;3073;42.660;23.316;2022-08-05T14:36:00;10.30;;;3.75;;
6089;SDS011;3073;42.660;23.316;2022-08-05T14:38:28;5.75;;;3.45;;
6089;SDS011;3073;42.660;23.316;2022-08-05T14:40:57;6.05;;;4.25;;
6089;SDS011;3073;42.660;23.316;2022-08-05T14:43:24;4.05;;;3.67;;
6089;SDS011;3073;42.660;23.316;2022-08-05T14:45:51;6.90;;;3.13;;
6089;SDS011;3073;42.660;23.316;2022-08-05T14:48:17;3.60;;;3.30;;
6089;SDS011;3073;42.660;23.316;2022-08-05T14:50:44;5.25;;;3.47;;
6089;SDS011;3073;42.660;23.316;2022-08-05T14:53:11;6.72;;;3.80;;
6089;SDS011;3073;42.660;23.316;2022-08-05T14:55:38;3.80;;;3.45;;
6089;SDS011;3073;42.660;23.316;2022-08-05T14:58:07;3.42;;;3.13;;
6089;SDS011;3073;42.660;23.316;2022-08-05T15:00:35;3.30;;;3.00;;
6089;SDS011;3073;42.660;23.316;2022-08-05T15:03:02;3.65;;;3.35;;
6089;SDS011;3073;42.660;23.316;2022-08-05T15:05:31;3.60;;;3.30;;
6089;SDS011;3073;42.660;23.316;2022-08-05T15:07:58;5.57;;;3.40;;
6089;SDS011;3073;42.660;23.316;2022-08-05T15:10:25;4.25;;;3.58;;